sensor_id;sensor_type;location;lat;lon;timestamp;pressure;altitude;pressure_sealevel;temperature;humidity
70488;BME280;57976;48.174;16.370;2022-09-09T00:00:21;99073.86;;;17.54;78.20
70488;BME280;57976;48.174;16.370;2022-09-09T00:02:28;99070.04;;;17.55;78.15
70488;BME280;57976;48.174;16.370;2022-09-09T00:04:35;99066.59;;;17.55;77.94
70488;BME280;57976;48.174;16.370;2022-09-09T00:06:49;99069.23;;;17.56;77.87
70488;BME280;57976;48.174;16.370;2022-09-09T00:09:02;99065.20;;;17.57;77.75
70488;BME280;57976;48.174;16.370;2022-09-09T00:11:11;99075.23;;;17.57;77.62
70488;BME280;57976;48.174;16.370;2022-09-09T00:13:22;99075.55;;;17.57;77.59
70488;BME280;57976;48.174;16.370;2022-09-09T00:15:32;99074.31;;;17.57;77.50
70488;BME280;57976;48.174;16.370;2022-09-09T00:17:46;99069.25;;;17.57;77.40
70488;BME280;57976;48.174;16.370;2022-09-09T00:19:56;99076.42;;;17.58;77.33
70488;BME280;57976;48.174;16.370;2022-09-09T00:22:14;99075.83;;;17.58;77.25
70488;BME280;57976;48.174;16.370;2022-09-09T00:24:26;99072.44;;;17.58;77.41
70488;BME280;57976;48.174;16.370;2022-09-09T00:26:35;99068.99;;;17.58;77.31
70488;BME280;57976;48.174;16.370;2022-09-09T00:28:50;99066.14;;;17.58;77.18
70488;BME280;57976;48.174;16.370;2022-09-09T00:30:57;99064.66;;;17.56;77.25
70488;BME280;57976;48.174;16.370;2022-09-09T00:33:12;99066.52;;;17.54;77.34
70488;BME280;57976;48.174;16.370;2022-09-09T00:35:22;99065.82;;;17.53;77.37
70488;BME280;57976;48.174;16.370;2022-09-09T00:37:29;99064.25;;;17.53;77.50
70488;BME280;57976;48.174;16.370;2022-09-09T00:39:39;99062.02;;;17.51;77.48
70488;BME280;57976;48.174;16.370;2022-09-09T00:42:03;99063.20;;;17.48;77.58
70488;BME280;57976;48.174;16.370;2022-09-09T00:44:25;99064.98;;;17.45;77.75
70488;BME280;57976;48.174;16.370;2022-09-09T00:46:54;99069.48;;;17.43;77.90
70488;BME280;57976;48.174;16.370;2022-09-09T00:49:07;99066.70;;;17.39;77.87
70488;BME280;57976;48.174;16.370;2022-09-09T00:51:21;99071.54;;;17.38;77.90
70488;BME280;57976;48.174;16.370;2022-09-09T00:53:35;99073.33;;;17.35;78.03
70488;BME280;57976;48.174;16.370;2022-09-09T00:55:47;99077.13;;;17.34;78.05
70488;BME280;57976;48.174;16.370;2022-09-09T00:57:53;99080.00;;;17.30;78.05
70488;BME280;57976;48.174;16.370;2022-09-09T01:00:15;99079.50;;;17.29;78.23
70488;BME280;57976;48.174;16.370;2022-09-09T01:02:28;99080.50;;;17.28;78.26
70488;BME280;57976;48.174;16.370;2022-09-09T01:04:37;99081.58;;;17.25;78.33
70488;BME280;57976;48.174;16.370;2022-09-09T01:06:42;99084.08;;;17.21;78.35
70488;BME280;57976;48.174;16.370;2022-09-09T01:09:13;99082.88;;;17.16;78.32
70488;BME280;57976;48.174;16.370;2022-09-09T01:11:24;99091.27;;;17.12;78.36
70488;BME280;57976;48.174;16.370;2022-09-09T01:13:33;99097.65;;;17.11;78.41
70488;BME280;57976;48.174;16.370;2022-09-09T01:15:43;99096.02;;;17.09;78.58
70488;BME280;57976;48.174;16.370;2022-09-09T01:17:52;99096.39;;;17.08;78.60
70488;BME280;57976;48.174;16.370;2022-09-09T01:20:09;99095.56;;;17.07;78.58
70488;BME280;57976;48.174;16.370;2022-09-09T01:22:29;99098.09;;;17.07;78.74
70488;BME280;57976;48.174;16.370;2022-09-09T01:24:40;99100.83;;;17.06;78.67
70488;BME280;57976;48.174;16.370;2022-09-09T01:27:10;99101.09;;;17.02;78.80
70488;BME280;57976;48.174;16.370;2022-09-09T01:29:18;99102.32;;;16.98;78.86
70488;BME280;57976;48.174;16.370;2022-09-09T01:31:28;99100.56;;;16.95;79.12
70488;BME280;57976;48.174;16.370;2022-09-09T01:33:34;99100.93;;;16.91;79.19
70488;BME280;57976;48.174;16.370;2022-09-09T01:35:45;99108.15;;;16.87;79.22
70488;BME280;57976;48.174;16.370;2022-09-09T01:37:54;99109.97;;;16.83;79.45
70488;BME280;57976;48.174;16.370;2022-09-09T01:39:59;99111.13;;;16.82;79.44
70488;BME280;57976;48.174;16.370;2022-09-09T01:42:06;99106.02;;;16.78;79.70
70488;BME280;57976;48.174;16.370;2022-09-09T01:44:12;99103.14;;;16.76;79.67
70488;BME280;57976;48.174;16.370;2022-09-09T01:46:22;99106.58;;;16.76;79.62
70488;BME280;57976;48.174;16.370;2022-09-09T01:48:28;99111.10;;;16.76;79.92
70488;BME280;57976;48.174;16.370;2022-09-09T01:50:40;99113.52;;;16.76;79.59
70488;BME280;57976;48.174;16.370;2022-09-09T01:52:47;99116.20;;;16.76;79.69
70488;BME280;57976;48.174;16.370;2022-09-09T01:54:55;99117.09;;;16.75;79.53
70488;BME280;57976;48.174;16.370;2022-09-09T01:57:08;99112.92;;;16.73;79.53
70488;BME280;57976;48.174;16.370;2022-09-09T01:59:36;99118.41;;;16.72;79.45
70488;BME280;57976;48.174;16.370;2022-09-09T02:01:56;99117.31;;;16.71;79.45
70488;BME280;57976;48.174;16.370;2022-09-09T02:04:06;99110.04;;;16.71;79.57
70488;BME280;57976;48.174;16.370;2022-09-09T02:06:27;99106.67;;;16.71;79.54
70488;BME280;57976;48.174;16.370;2022-09-09T02:08:42;99102.44;;;16.73;79.49
70488;BME280;57976;48.174;16.370;2022-09-09T02:10:53;99100.30;;;16.74;79.35
70488;BME280;57976;48.174;16.370;2022-09-09T02:13:11;99099.00;;;16.77;79.35
70488;BME280;57976;48.174;16.370;2022-09-09T02:15:22;99099.92;;;16.78;79.14
70488;BME280;57976;48.174;16.370;2022-09-09T02:17:31;99100.03;;;16.80;79.21
70488;BME280;57976;48.174;16.370;2022-09-09T02:19:46;99097.30;;;16.82;79.15
70488;BME280;57976;48.174;16.370;2022-09-09T02:22:01;99094.66;;;16.81;79.01
70488;BME280;57976;48.174;16.370;2022-09-09T02:24:08;99097.64;;;16.83;79.07
70488;BME280;57976;48.174;16.370;2022-09-09T02:26:15;99095.73;;;16.85;79.08
70488;BME280;57976;48.174;16.370;2022-09-09T02:28:23;99095.57;;;16.84;78.97
70488;BME280;57976;48.174;16.370;2022-09-09T02:30:30;99092.23;;;16.85;78.95
70488;BME280;57976;48.174;16.370;2022-09-09T02:32:37;99087.83;;;16.85;78.91
70488;BME280;57976;48.174;16.370;2022-09-09T02:34:47;99089.56;;;16.83;78.81
70488;BME280;57976;48.174;16.370;2022-09-09T02:36:55;99095.33;;;16.83;78.90
70488;BME280;57976;48.174;16.370;2022-09-09T02:39:02;99096.17;;;16.81;79.02
70488;BME280;57976;48.174;16.370;2022-09-09T02:41:09;99098.80;;;16.81;79.19
70488;BME280;57976;48.174;16.370;2022-09-09T02:43:15;99105.56;;;16.80;78.94
70488;BME280;57976;48.174;16.370;2022-09-09T02:45:22;99106.83;;;16.79;79.17
70488;BME280;57976;48.174;16.370;2022-09-09T02:47:33;99108.10;;;16.77;78.99
70488;BME280;57976;48.174;16.370;2022-09-09T02:49:52;99109.50;;;16.76;78.86
70488;BME280;57976;48.174;16.370;2022-09-09T02:52:04;99108.64;;;16.77;79.03
70488;BME280;57976;48.174;16.370;2022-09-09T02:54:19;99107.92;;;16.77;78.89
70488;BME280;57976;48.174;16.370;2022-09-09T02:56:29;99106.81;;;16.77;78.82
70488;BME280;57976;48.174;16.370;2022-09-09T02:58:35;99112.56;;;16.77;78.80
70488;BME280;57976;48.174;16.370;2022-09-09T03:00:43;99110.64;;;16.78;78.95
70488;BME280;57976;48.174;16.370;2022-09-09T03:02:48;99114.02;;;16.78;78.87
70488;BME280;57976;48.174;16.370;2022-09-09T03:04:53;99115.48;;;16.81;78.98
70488;BME280;57976;48.174;16.370;2022-09-09T03:06:58;99116.21;;;16.87;78.84
70488;BME280;57976;48.174;16.370;2022-09-09T03:09:03;99116.35;;;16.89;78.85
70488;BME280;57976;48.174;16.370;2022-09-09T03:11:09;99112.65;;;16.93;78.80
70488;BME280;57976;48.174;16.370;2022-09-09T03:13:14;99111.02;;;16.99;78.60
70488;BME280;57976;48.174;16.370;2022-09-09T03:15:19;99102.64;;;16.96;78.39
70488;BME280;57976;48.174;16.370;2022-09-09T03:17:24;99106.78;;;16.94;78.26
70488;BME280;57976;48.174;16.370;2022-09-09T03:19:31;99107.91;;;16.92;78.49
70488;BME280;57976;48.174;16.370;2022-09-09T03:21:36;99104.04;;;16.90;78.57
70488;BME280;57976;48.174;16.370;2022-09-09T03:23:41;99101.79;;;16.87;78.69
70488;BME280;57976;48.174;16.370;2022-09-09T03:25:49;99106.98;;;16.82;78.83
70488;BME280;57976;48.174;16.370;2022-09-09T03:27:57;99108.95;;;16.76;79.05
70488;BME280;57976;48.174;16.370;2022-09-09T03:30:02;99110.09;;;16.70;79.16
70488;BME280;57976;48.174;16.370;2022-09-09T03:32:07;99105.58;;;16.60;79.34
70488;BME280;57976;48.174;16.370;2022-09-09T03:34:12;99104.80;;;16.55;79.61
70488;BME280;57976;48.174;16.370;2022-09-09T03:36:17;99103.74;;;16.53;79.69
70488;BME280;57976;48.174;16.370;2022-09-09T03:38:22;99095.98;;;16.50;80.00
70488;BME280;57976;48.174;16.370;2022-09-09T03:40:27;99096.05;;;16.50;80.02
70488;BME280;57976;48.174;16.370;2022-09-09T03:42:32;99093.13;;;16.52;80.05
70488;BME280;57976;48.174;16.370;2022-09-09T03:44:37;99094.06;;;16.54;80.09
70488;BME280;57976;48.174;16.370;2022-09-09T03:46:41;99095.77;;;16.56;79.95
70488;BME280;57976;48.174;16.370;2022-09-09T03:48:46;99099.54;;;16.57;80.09
70488;BME280;57976;48.174;16.370;2022-09-09T03:50:52;99106.27;;;16.60;79.95
70488;BME280;57976;48.174;16.370;2022-09-09T03:52:57;99106.34;;;16.60;80.21
70488;BME280;57976;48.174;16.370;2022-09-09T03:55:02;99109.01;;;16.63;80.36
70488;BME280;57976;48.174;16.370;2022-09-09T03:57:07;99104.99;;;16.64;80.29
70488;BME280;57976;48.174;16.370;2022-09-09T03:59:12;99106.92;;;16.64;80.25
70488;BME280;57976;48.174;16.370;2022-09-09T04:01:18;99100.38;;;16.65;80.39
70488;BME280;57976;48.174;16.370;2022-09-09T04:03:23;99100.60;;;16.66;80.41
70488;BME280;57976;48.174;16.370;2022-09-09T04:05:34;99099.11;;;16.63;80.57
70488;BME280;57976;48.174;16.370;2022-09-09T04:07:39;99104.52;;;16.60;80.60
70488;BME280;57976;48.174;16.370;2022-09-09T04:09:44;99103.52;;;16.60;80.79
70488;BME280;57976;48.174;16.370;2022-09-09T04:11:50;99104.54;;;16.62;80.87
70488;BME280;57976;48.174;16.370;2022-09-09T04:13:55;99106.70;;;16.67;81.03
70488;BME280;57976;48.174;16.370;2022-09-09T04:16:01;99106.27;;;16.70;80.97
70488;BME280;57976;48.174;16.370;2022-09-09T04:18:06;99107.20;;;16.72;81.35
70488;BME280;57976;48.174;16.370;2022-09-09T04:20:14;99101.56;;;16.72;81.44
70488;BME280;57976;48.174;16.370;2022-09-09T04:22:19;99102.61;;;16.74;81.51
70488;BME280;57976;48.174;16.370;2022-09-09T04:24:24;99110.39;;;16.79;81.66
70488;BME280;57976;48.174;16.370;2022-09-09T04:26:29;99110.44;;;16.83;81.50
70488;BME280;57976;48.174;16.370;2022-09-09T04:28:35;99115.75;;;16.85;81.51
70488;BME280;57976;48.174;16.370;2022-09-09T04:30:40;99113.23;;;16.86;81.50
70488;BME280;57976;48.174;16.370;2022-09-09T04:32:45;99112.61;;;16.88;81.69
70488;BME280;57976;48.174;16.370;2022-09-09T04:34:50;99110.38;;;16.89;81.52
70488;BME280;57976;48.174;16.370;2022-09-09T04:36:55;99110.70;;;16.92;81.69
70488;BME280;57976;48.174;16.370;2022-09-09T04:39:00;99116.48;;;16.94;81.43
70488;BME280;57976;48.174;16.370;2022-09-09T04:41:06;99127.68;;;16.91;81.59
70488;BME280;57976;48.174;16.370;2022-09-09T04:43:11;99129.73;;;16.87;81.85
70488;BME280;57976;48.174;16.370;2022-09-09T04:45:18;99138.98;;;16.83;82.02
70488;BME280;57976;48.174;16.370;2022-09-09T04:47:23;99143.05;;;16.78;82.17
70488;BME280;57976;48.174;16.370;2022-09-09T04:49:28;99140.55;;;16.74;82.66
70488;BME280;57976;48.174;16.370;2022-09-09T04:51:33;99139.56;;;16.69;82.73
70488;BME280;57976;48.174;16.370;2022-09-09T04:53:38;99136.18;;;16.63;82.94
70488;BME280;57976;48.174;16.370;2022-09-09T04:55:43;99143.38;;;16.59;83.47
70488;BME280;57976;48.174;16.370;2022-09-09T04:57:48;99148.83;;;16.57;83.87
70488;BME280;57976;48.174;16.370;2022-09-09T04:59:52;99152.60;;;16.61;83.97
70488;BME280;57976;48.174;16.370;2022-09-09T05:01:57;99151.98;;;16.62;83.55
70488;BME280;57976;48.174;16.370;2022-09-09T05:04:03;99148.33;;;16.60;83.11
70488;BME280;57976;48.174;16.370;2022-09-09T05:06:11;99144.61;;;16.56;82.92
70488;BME280;57976;48.174;16.370;2022-09-09T05:08:16;99146.05;;;16.55;83.15
70488;BME280;57976;48.174;16.370;2022-09-09T05:10:21;99141.83;;;16.54;83.05
70488;BME280;57976;48.174;16.370;2022-09-09T05:12:26;99138.21;;;16.51;83.12
70488;BME280;57976;48.174;16.370;2022-09-09T05:14:30;99141.53;;;16.52;83.31
70488;BME280;57976;48.174;16.370;2022-09-09T05:16:36;99142.45;;;16.52;83.39
70488;BME280;57976;48.174;16.370;2022-09-09T05:18:42;99148.95;;;16.53;83.28
70488;BME280;57976;48.174;16.370;2022-09-09T05:20:47;99149.60;;;16.52;83.48
70488;BME280;57976;48.174;16.370;2022-09-09T05:22:55;99149.95;;;16.51;83.57
70488;BME280;57976;48.174;16.370;2022-09-09T05:25:00;99148.84;;;16.51;83.61
70488;BME280;57976;48.174;16.370;2022-09-09T05:27:05;99146.49;;;16.50;83.43
70488;BME280;57976;48.174;16.370;2022-09-09T05:29:10;99145.13;;;16.50;83.54
70488;BME280;57976;48.174;16.370;2022-09-09T05:31:16;99143.55;;;16.51;83.25
70488;BME280;57976;48.174;16.370;2022-09-09T05:33:22;99137.54;;;16.49;83.35
70488;BME280;57976;48.174;16.370;2022-09-09T05:35:28;99141.52;;;16.48;83.69
70488;BME280;57976;48.174;16.370;2022-09-09T05:37:33;99146.15;;;16.49;84.02
70488;BME280;57976;48.174;16.370;2022-09-09T05:39:38;99156.55;;;16.56;83.88
70488;BME280;57976;48.174;16.370;2022-09-09T05:41:43;99159.77;;;16.61;83.60
70488;BME280;57976;48.174;16.370;2022-09-09T05:43:47;99164.59;;;16.67;83.57
70488;BME280;57976;48.174;16.370;2022-09-09T05:46:02;99160.33;;;16.72;83.53
70488;BME280;57976;48.174;16.370;2022-09-09T05:48:06;99156.77;;;16.81;83.23
70488;BME280;57976;48.174;16.370;2022-09-09T05:50:11;99156.48;;;16.87;83.11
70488;BME280;57976;48.174;16.370;2022-09-09T05:52:16;99149.50;;;16.92;82.99
70488;BME280;57976;48.174;16.370;2022-09-09T05:54:21;99154.77;;;16.96;82.77
70488;BME280;57976;48.174;16.370;2022-09-09T05:56:28;99154.30;;;17.00;82.65
70488;BME280;57976;48.174;16.370;2022-09-09T05:58:35;99151.63;;;17.02;82.48
70488;BME280;57976;48.174;16.370;2022-09-09T06:00:41;99153.50;;;17.04;82.53
70488;BME280;57976;48.174;16.370;2022-09-09T06:02:52;99152.10;;;17.04;82.51
70488;BME280;57976;48.174;16.370;2022-09-09T06:04:57;99154.00;;;17.02;82.34
70488;BME280;57976;48.174;16.370;2022-09-09T06:07:05;99151.81;;;17.00;82.45
70488;BME280;57976;48.174;16.370;2022-09-09T06:09:10;99147.58;;;16.97;82.44
70488;BME280;57976;48.174;16.370;2022-09-09T06:11:19;99146.98;;;16.97;82.37
70488;BME280;57976;48.174;16.370;2022-09-09T06:13:24;99143.89;;;16.95;82.37
70488;BME280;57976;48.174;16.370;2022-09-09T06:15:29;99139.27;;;16.90;82.40
70488;BME280;57976;48.174;16.370;2022-09-09T06:17:34;99139.88;;;16.90;82.47
70488;BME280;57976;48.174;16.370;2022-09-09T06:19:39;99138.61;;;16.93;82.76
70488;BME280;57976;48.174;16.370;2022-09-09T06:21:44;99135.98;;;17.03;82.75
70488;BME280;57976;48.174;16.370;2022-09-09T06:23:49;99137.71;;;17.11;82.90
70488;BME280;57976;48.174;16.370;2022-09-09T06:26:02;99142.31;;;17.16;82.61
70488;BME280;57976;48.174;16.370;2022-09-09T06:28:07;99140.50;;;17.21;82.59
70488;BME280;57976;48.174;16.370;2022-09-09T06:30:13;99142.66;;;17.29;82.46
70488;BME280;57976;48.174;16.370;2022-09-09T06:32:18;99138.48;;;17.31;82.23
70488;BME280;57976;48.174;16.370;2022-09-09T06:34:23;99137.34;;;17.34;82.30
70488;BME280;57976;48.174;16.370;2022-09-09T06:36:32;99133.21;;;17.39;82.07
70488;BME280;57976;48.174;16.370;2022-09-09T06:38:37;99126.98;;;17.45;82.00
70488;BME280;57976;48.174;16.370;2022-09-09T06:40:42;99127.11;;;17.49;81.80
70488;BME280;57976;48.174;16.370;2022-09-09T06:42:47;99128.05;;;17.58;81.59
70488;BME280;57976;48.174;16.370;2022-09-09T06:45:00;99129.59;;;17.65;81.47
70488;BME280;57976;48.174;16.370;2022-09-09T06:47:20;99129.05;;;17.74;81.33
70488;BME280;57976;48.174;16.370;2022-09-09T06:49:25;99135.53;;;17.84;81.12
70488;BME280;57976;48.174;16.370;2022-09-09T06:51:31;99135.79;;;17.92;80.74
70488;BME280;57976;48.174;16.370;2022-09-09T06:53:40;99141.62;;;18.04;80.31
70488;BME280;57976;48.174;16.370;2022-09-09T06:55:47;99137.37;;;18.14;79.74
70488;BME280;57976;48.174;16.370;2022-09-09T06:57:53;99134.67;;;18.20;79.49
70488;BME280;57976;48.174;16.370;2022-09-09T06:59:59;99135.71;;;18.27;79.47
70488;BME280;57976;48.174;16.370;2022-09-09T07:02:04;99135.59;;;18.36;79.11
70488;BME280;57976;48.174;16.370;2022-09-09T07:04:09;99130.81;;;18.48;78.75
70488;BME280;57976;48.174;16.370;2022-09-09T07:06:17;99129.34;;;18.59;78.42
70488;BME280;57976;48.174;16.370;2022-09-09T07:08:23;99130.35;;;18.70;78.18
70488;BME280;57976;48.174;16.370;2022-09-09T07:10:28;99126.32;;;18.79;77.86
70488;BME280;57976;48.174;16.370;2022-09-09T07:12:33;99127.31;;;18.90;77.30
70488;BME280;57976;48.174;16.370;2022-09-09T07:14:38;99123.48;;;18.98;77.23
70488;BME280;57976;48.174;16.370;2022-09-09T07:16:45;99127.21;;;19.04;77.24
70488;BME280;57976;48.174;16.370;2022-09-09T07:18:51;99129.80;;;19.14;76.19
70488;BME280;57976;48.174;16.370;2022-09-09T07:20:57;99131.49;;;19.18;76.42
70488;BME280;57976;48.174;16.370;2022-09-09T07:23:02;99127.75;;;19.21;76.21
70488;BME280;57976;48.174;16.370;2022-09-09T07:25:08;99130.14;;;19.25;76.04
70488;BME280;57976;48.174;16.370;2022-09-09T07:27:13;99129.13;;;19.28;75.39
70488;BME280;57976;48.174;16.370;2022-09-09T07:29:18;99129.25;;;19.29;75.08
70488;BME280;57976;48.174;16.370;2022-09-09T07:31:27;99134.21;;;19.36;75.45
70488;BME280;57976;48.174;16.370;2022-09-09T07:33:33;99138.50;;;19.48;74.85
70488;BME280;57976;48.174;16.370;2022-09-09T07:35:39;99135.97;;;19.50;74.41
70488;BME280;57976;48.174;16.370;2022-09-09T07:37:44;99138.56;;;19.49;74.26
70488;BME280;57976;48.174;16.370;2022-09-09T07:39:55;99140.42;;;19.52;74.84
70488;BME280;57976;48.174;16.370;2022-09-09T07:41:59;99139.63;;;19.57;74.94
70488;BME280;57976;48.174;16.370;2022-09-09T07:44:08;99142.09;;;19.61;74.65
70488;BME280;57976;48.174;16.370;2022-09-09T07:46:14;99139.98;;;19.66;74.43
70488;BME280;57976;48.174;16.370;2022-09-09T07:48:20;99140.23;;;19.70;74.03
70488;BME280;57976;48.174;16.370;2022-09-09T07:50:26;99138.28;;;19.69;73.86
70488;BME280;57976;48.174;16.370;2022-09-09T07:52:31;99139.27;;;19.71;73.74
70488;BME280;57976;48.174;16.370;2022-09-09T07:54:38;99141.29;;;19.75;73.32
70488;BME280;57976;48.174;16.370;2022-09-09T07:56:43;99147.66;;;19.77;73.14
70488;BME280;57976;48.174;16.370;2022-09-09T07:58:50;99148.44;;;19.81;73.23
70488;BME280;57976;48.174;16.370;2022-09-09T08:00:55;99151.17;;;19.91;73.57
70488;BME280;57976;48.174;16.370;2022-09-09T08:03:00;99143.52;;;20.03;73.24
70488;BME280;57976;48.174;16.370;2022-09-09T08:05:06;99145.23;;;20.12;71.90
70488;BME280;57976;48.174;16.370;2022-09-09T08:07:11;99145.90;;;20.20;72.11
70488;BME280;57976;48.174;16.370;2022-09-09T08:09:21;99153.11;;;20.32;72.28
70488;BME280;57976;48.174;16.370;2022-09-09T08:11:28;99152.14;;;20.44;71.25
70488;BME280;57976;48.174;16.370;2022-09-09T08:13:34;99156.42;;;20.50;71.10
70488;BME280;57976;48.174;16.370;2022-09-09T08:15:39;99154.00;;;20.58;71.09
70488;BME280;57976;48.174;16.370;2022-09-09T08:17:44;99153.46;;;20.69;70.96
70488;BME280;57976;48.174;16.370;2022-09-09T08:19:49;99150.00;;;20.83;70.61
70488;BME280;57976;48.174;16.370;2022-09-09T08:21:57;99148.64;;;20.94;70.09
70488;BME280;57976;48.174;16.370;2022-09-09T08:24:03;99150.45;;;21.06;69.72
70488;BME280;57976;48.174;16.370;2022-09-09T08:26:11;99149.67;;;21.15;68.76
70488;BME280;57976;48.174;16.370;2022-09-09T08:28:16;99153.49;;;21.24;68.62
70488;BME280;57976;48.174;16.370;2022-09-09T08:30:21;99156.46;;;21.31;68.71
70488;BME280;57976;48.174;16.370;2022-09-09T08:32:26;99158.29;;;21.40;67.23
70488;BME280;57976;48.174;16.370;2022-09-09T08:34:31;99155.73;;;21.44;67.32
70488;BME280;57976;48.174;16.370;2022-09-09T08:36:39;99157.17;;;21.49;67.62
70488;BME280;57976;48.174;16.370;2022-09-09T08:38:46;99157.87;;;21.56;67.88
70488;BME280;57976;48.174;16.370;2022-09-09T08:40:52;99153.40;;;21.61;67.67
70488;BME280;57976;48.174;16.370;2022-09-09T08:43:03;99153.38;;;21.67;67.28
70488;BME280;57976;48.174;16.370;2022-09-09T08:45:22;99150.20;;;21.74;67.00
70488;BME280;57976;48.174;16.370;2022-09-09T08:47:35;99148.23;;;21.84;66.95
70488;BME280;57976;48.174;16.370;2022-09-09T08:49:58;99143.25;;;21.96;66.93
70488;BME280;57976;48.174;16.370;2022-09-09T08:52:12;99137.14;;;22.12;66.49
70488;BME280;57976;48.174;16.370;2022-09-09T08:54:18;99130.02;;;22.21;65.93
70488;BME280;57976;48.174;16.370;2022-09-09T08:56:43;99126.11;;;22.28;64.91
70488;BME280;57976;48.174;16.370;2022-09-09T08:58:50;99125.18;;;22.32;63.61
70488;BME280;57976;48.174;16.370;2022-09-09T09:01:17;99129.69;;;22.32;62.85
70488;BME280;57976;48.174;16.370;2022-09-09T09:03:35;99130.77;;;22.38;64.15
70488;BME280;57976;48.174;16.370;2022-09-09T09:05:48;99130.64;;;22.51;63.92
70488;BME280;57976;48.174;16.370;2022-09-09T09:08:06;99129.70;;;22.63;63.22
70488;BME280;57976;48.174;16.370;2022-09-09T09:10:24;99124.48;;;22.71;62.80
70488;BME280;57976;48.174;16.370;2022-09-09T09:12:46;99115.67;;;22.84;62.22
70488;BME280;57976;48.174;16.370;2022-09-09T09:14:52;99112.92;;;22.86;61.28
70488;BME280;57976;48.174;16.370;2022-09-09T09:17:00;99111.50;;;22.88;61.71
70488;BME280;57976;48.174;16.370;2022-09-09T09:19:07;99113.48;;;22.90;61.24
70488;BME280;57976;48.174;16.370;2022-09-09T09:21:16;99115.56;;;22.96;61.83
70488;BME280;57976;48.174;16.370;2022-09-09T09:23:25;99113.66;;;23.06;61.98
70488;BME280;57976;48.174;16.370;2022-09-09T09:25:35;99115.08;;;23.12;60.66
70488;BME280;57976;48.174;16.370;2022-09-09T09:27:48;99116.73;;;23.11;59.28
70488;BME280;57976;48.174;16.370;2022-09-09T09:29:56;99111.24;;;23.08;58.39
70488;BME280;57976;48.174;16.370;2022-09-09T09:32:22;99108.61;;;23.06;59.32
70488;BME280;57976;48.174;16.370;2022-09-09T09:34:28;99107.85;;;23.11;59.34
70488;BME280;57976;48.174;16.370;2022-09-09T09:36:40;99106.88;;;23.15;59.24
70488;BME280;57976;48.174;16.370;2022-09-09T09:38:55;99105.30;;;23.16;57.75
70488;BME280;57976;48.174;16.370;2022-09-09T09:41:32;99104.47;;;23.17;58.51
70488;BME280;57976;48.174;16.370;2022-09-09T09:43:39;99104.69;;;23.17;59.12
70488;BME280;57976;48.174;16.370;2022-09-09T09:45:47;99106.48;;;23.26;59.59
70488;BME280;57976;48.174;16.370;2022-09-09T09:48:13;99102.23;;;23.41;59.28
70488;BME280;57976;48.174;16.370;2022-09-09T09:50:19;99096.45;;;23.51;58.43
70488;BME280;57976;48.174;16.370;2022-09-09T09:52:27;99093.64;;;23.55;58.01
70488;BME280;57976;48.174;16.370;2022-09-09T09:54:37;99092.46;;;23.56;57.66
70488;BME280;57976;48.174;16.370;2022-09-09T09:56:44;99090.83;;;23.52;58.36
70488;BME280;57976;48.174;16.370;2022-09-09T09:58:52;99092.80;;;23.51;58.65
70488;BME280;57976;48.174;16.370;2022-09-09T10:01:02;99090.61;;;23.52;58.85
70488;BME280;57976;48.174;16.370;2022-09-09T10:03:23;99085.58;;;23.55;57.91
70488;BME280;57976;48.174;16.370;2022-09-09T10:05:30;99087.68;;;23.61;58.62
70488;BME280;57976;48.174;16.370;2022-09-09T10:07:44;99085.53;;;23.71;57.64
70488;BME280;57976;48.174;16.370;2022-09-09T10:09:54;99082.77;;;23.84;57.25
70488;BME280;57976;48.174;16.370;2022-09-09T10:12:06;99088.42;;;23.98;56.38
70488;BME280;57976;48.174;16.370;2022-09-09T10:14:20;99089.83;;;24.09;56.54
70488;BME280;57976;48.174;16.370;2022-09-09T10:16:40;99084.92;;;24.16;57.02
70488;BME280;57976;48.174;16.370;2022-09-09T10:19:00;99087.33;;;24.30;57.53
70488;BME280;57976;48.174;16.370;2022-09-09T10:21:09;99085.43;;;24.34;57.52
70488;BME280;57976;48.174;16.370;2022-09-09T10:23:28;99086.45;;;24.39;57.57
70488;BME280;57976;48.174;16.370;2022-09-09T10:25:41;99085.54;;;24.47;57.19
70488;BME280;57976;48.174;16.370;2022-09-09T10:28:12;99085.44;;;24.43;56.63
70488;BME280;57976;48.174;16.370;2022-09-09T10:30:26;99084.98;;;24.34;56.74
70488;BME280;57976;48.174;16.370;2022-09-09T10:32:44;99083.40;;;24.31;57.73
70488;BME280;57976;48.174;16.370;2022-09-09T10:34:57;99081.52;;;24.37;57.59
70488;BME280;57976;48.174;16.370;2022-09-09T10:37:06;99084.30;;;24.39;56.87
70488;BME280;57976;48.174;16.370;2022-09-09T10:39:33;99085.42;;;24.44;57.71
70488;BME280;57976;48.174;16.370;2022-09-09T10:41:52;99084.17;;;24.54;56.50
70488;BME280;57976;48.174;16.370;2022-09-09T10:44:17;99083.65;;;24.59;56.16
70488;BME280;57976;48.174;16.370;2022-09-09T10:46:29;99077.23;;;24.65;55.95
70488;BME280;57976;48.174;16.370;2022-09-09T10:48:56;99073.57;;;24.71;56.46
70488;BME280;57976;48.174;16.370;2022-09-09T10:51:14;99079.55;;;24.80;54.97
70488;BME280;57976;48.174;16.370;2022-09-09T10:53:36;99080.98;;;24.69;55.49
70488;BME280;57976;48.174;16.370;2022-09-09T10:55:43;99083.02;;;24.71;55.97
70488;BME280;57976;48.174;16.370;2022-09-09T10:57:52;99088.47;;;24.84;55.87
70488;BME280;57976;48.174;16.370;2022-09-09T11:00:01;99093.46;;;24.98;54.58
70488;BME280;57976;48.174;16.370;2022-09-09T11:02:15;99096.83;;;25.07;52.78
70488;BME280;57976;48.174;16.370;2022-09-09T11:04:24;99099.15;;;25.08;53.01
70488;BME280;57976;48.174;16.370;2022-09-09T11:06:34;99094.38;;;25.16;52.32
70488;BME280;57976;48.174;16.370;2022-09-09T11:08:42;99092.52;;;25.23;51.93
70488;BME280;57976;48.174;16.370;2022-09-09T11:10:48;99089.36;;;25.27;51.94
70488;BME280;57976;48.174;16.370;2022-09-09T11:12:59;99081.34;;;25.33;51.95
70488;BME280;57976;48.174;16.370;2022-09-09T11:15:09;99079.59;;;25.39;51.91